UAE73J EGCC-OMDB
Flight info
| Callsign | UAE73J |
|---|---|
| Flight time | N/A |
| Altitude | 23000 |
| Route | SANBA N859 HON/N0483F350 UL612 VEULE DCT KOTAP UM728 KETEX DCT KOTIS DCT KUKOR DCT UTUVA DCT TITVA DCT NOQAS DCT OTROT DCT RETNO DCT KOLON DCT RAPUR DCT RATAP DCT BTA DCT DOKAR DCT SUNEV DCT TAGEL DCT MASOT DCT BELIX DCT SALUN N705 MMA/N0484F370 P751 DASUM Y234 FYM M872 BDB Y214 RAPMA DCT KUVSO DCT KATIT DCT PEKEM M628 RIGIL G783 ELUDA/N0497F350 G783 ASPED Q308 KIPOK Q568 IMPED |
| Aircraft | B77W/H-SDE1E2E3FGHIJ2J3J4J5M1RWXY/LB1D1 |
Departure
| Time | N/A |
|---|---|
| Airport | Manchester Airport (EGCC) |
Arrival
| Time | 2026-04-25 01:12 |
|---|---|
| Airport | Dubai International Airport (OMDB) |
| Time | Latitude | Longitude | Altitude | Speed | Heading |
|---|---|---|---|---|---|
| 2026-04-24 16:56 | 53.36273 | -2.27764 | 238 ft | 0 kts | 195° |
| 2026-04-24 18:54 | 45.08564 | 4.49377 | 35099 ft | 487 kts | 131° |
| 2026-04-24 18:55 | 45.01871 | 4.60192 | 35084 ft | 486 kts | 131° |
| 2026-04-24 18:56 | 44.97427 | 4.67390 | 35091 ft | 485 kts | 131° |
| 2026-04-24 18:56 | 44.92997 | 4.74580 | 35082 ft | 485 kts | 131° |
| 2026-04-24 18:57 | 44.88567 | 4.81759 | 35073 ft | 486 kts | 131° |
| 2026-04-24 18:57 | 44.84148 | 4.88900 | 35082 ft | 486 kts | 131° |
| 2026-04-24 18:58 | 44.79678 | 4.96104 | 35086 ft | 488 kts | 131° |
| 2026-04-24 18:58 | 44.75198 | 5.03304 | 35083 ft | 488 kts | 132° |
| 2026-04-24 18:59 | 44.70725 | 5.10475 | 35093 ft | 486 kts | 131° |
| 2026-04-24 18:59 | 44.66268 | 5.17601 | 35098 ft | 484 kts | 132° |
| 2026-04-24 19:00 | 44.61848 | 5.24651 | 35117 ft | 483 kts | 132° |
| 2026-04-24 19:00 | 44.57405 | 5.31722 | 35119 ft | 482 kts | 132° |
| 2026-04-24 19:01 | 44.52970 | 5.38763 | 35135 ft | 481 kts | 132° |
| 2026-04-24 19:01 | 44.48543 | 5.45771 | 35123 ft | 479 kts | 133° |
| 2026-04-24 19:02 | 44.44875 | 5.51567 | 35119 ft | 478 kts | 133° |
| 2026-04-24 19:02 | 44.39752 | 5.59642 | 35118 ft | 476 kts | 133° |
| 2026-04-24 19:03 | 44.35692 | 5.66938 | 35115 ft | 477 kts | 125° |
| 2026-04-24 19:03 | 44.32001 | 5.74643 | 35119 ft | 477 kts | 124° |
| 2026-04-24 19:04 | 44.28304 | 5.82332 | 35109 ft | 476 kts | 125° |
| 2026-04-24 19:04 | 44.24584 | 5.89982 | 35106 ft | 476 kts | 124° |
| 2026-04-24 19:05 | 44.20873 | 5.97568 | 35112 ft | 476 kts | 125° |
| 2026-04-24 19:05 | 44.17131 | 6.05195 | 35106 ft | 477 kts | 125° |
| 2026-04-24 19:06 | 44.13383 | 6.12817 | 35113 ft | 477 kts | 124° |
| 2026-04-24 19:06 | 44.09634 | 6.20421 | 35109 ft | 476 kts | 124° |
| 2026-04-24 19:07 | 44.05884 | 6.28007 | 35112 ft | 476 kts | 124° |
| 2026-04-24 19:07 | 44.02762 | 6.34308 | 35117 ft | 475 kts | 124° |
| 2026-04-24 19:08 | 43.98376 | 6.43139 | 35103 ft | 475 kts | 124° |
| 2026-04-24 19:08 | 43.94620 | 6.50679 | 35102 ft | 474 kts | 124° |
| 2026-04-24 19:09 | 43.90869 | 6.58191 | 35092 ft | 473 kts | 124° |
| 2026-04-24 19:09 | 43.87120 | 6.65678 | 35091 ft | 472 kts | 124° |
| 2026-04-24 19:10 | 43.83371 | 6.73149 | 35086 ft | 472 kts | 124° |
| 2026-04-24 19:10 | 43.79636 | 6.80570 | 35092 ft | 472 kts | 124° |
| 2026-04-24 19:11 | 43.75870 | 6.88039 | 35078 ft | 473 kts | 124° |
| 2026-04-24 19:11 | 43.72087 | 6.95520 | 35078 ft | 475 kts | 124° |
| 2026-04-24 19:12 | 43.68429 | 7.03140 | 35080 ft | 476 kts | 122° |
| 2026-04-24 19:12 | 43.64868 | 7.10849 | 35080 ft | 476 kts | 122° |
| 2026-04-24 19:13 | 43.61895 | 7.17250 | 35069 ft | 476 kts | 122° |
| 2026-04-24 19:13 | 43.57704 | 7.26173 | 35078 ft | 476 kts | 121° |
| 2026-04-24 19:14 | 43.54091 | 7.33820 | 35076 ft | 475 kts | 122° |
| 2026-04-24 19:14 | 43.50483 | 7.41433 | 35083 ft | 474 kts | 122° |
| 2026-04-24 19:15 | 43.46880 | 7.49018 | 35086 ft | 473 kts | 122° |
| 2026-04-24 19:15 | 43.43295 | 7.56548 | 35085 ft | 473 kts | 122° |
| 2026-04-24 19:16 | 43.37876 | 7.67892 | 35092 ft | 472 kts | 122° |
| 2026-04-24 19:16 | 43.34260 | 7.75440 | 35098 ft | 472 kts | 122° |
| 2026-04-24 19:17 | 43.30645 | 7.82963 | 35099 ft | 472 kts | 121° |
| 2026-04-24 19:17 | 43.27018 | 7.90494 | 35113 ft | 473 kts | 122° |
| 2026-04-24 19:18 | 43.23384 | 7.98020 | 35116 ft | 473 kts | 122° |
| 2026-04-24 19:18 | 43.19742 | 8.05544 | 35121 ft | 474 kts | 122° |
| 2026-04-24 19:19 | 43.16108 | 8.13031 | 35125 ft | 475 kts | 122° |
| 2026-04-24 19:19 | 43.12442 | 8.20564 | 35129 ft | 476 kts | 122° |
| 2026-04-24 19:20 | 43.08766 | 8.28101 | 35130 ft | 476 kts | 122° |
| 2026-04-24 19:20 | 43.05082 | 8.35633 | 35137 ft | 476 kts | 122° |
| 2026-04-24 19:21 | 43.01393 | 8.43158 | 35121 ft | 476 kts | 122° |
| 2026-04-24 19:21 | 42.97702 | 8.50669 | 35123 ft | 476 kts | 122° |
| 2026-04-24 19:22 | 42.94011 | 8.58162 | 35123 ft | 476 kts | 122° |
| 2026-04-24 19:22 | 42.90335 | 8.65605 | 35129 ft | 475 kts | 122° |
| 2026-04-24 19:23 | 42.86991 | 8.73350 | 35154 ft | 473 kts | 116° |
| 2026-04-24 19:23 | 42.83894 | 8.81284 | 35128 ft | 473 kts | 116° |
| 2026-04-24 19:24 | 42.80775 | 8.89185 | 35128 ft | 473 kts | 116° |
| 2026-04-24 19:24 | 42.77653 | 8.97017 | 35127 ft | 473 kts | 116° |
| 2026-04-24 19:25 | 42.74503 | 9.04897 | 35125 ft | 473 kts | 116° |
| 2026-04-24 19:25 | 42.71353 | 9.12761 | 35139 ft | 473 kts | 116° |
| 2026-04-24 19:26 | 42.68204 | 9.20629 | 35126 ft | 473 kts | 116° |
| 2026-04-24 19:26 | 42.65059 | 9.28477 | 35127 ft | 473 kts | 116° |
| 2026-04-24 19:27 | 42.61909 | 9.36316 | 35125 ft | 473 kts | 116° |
| 2026-04-24 19:27 | 42.58774 | 9.44095 | 35130 ft | 473 kts | 116° |
| 2026-04-24 19:28 | 42.56072 | 9.52173 | 35133 ft | 468 kts | 107° |
| 2026-04-24 19:28 | 42.53936 | 9.60518 | 35126 ft | 467 kts | 107° |
| 2026-04-24 19:29 | 42.50648 | 9.72967 | 35132 ft | 467 kts | 107° |
| 2026-04-24 19:30 | 42.49013 | 9.81366 | 35117 ft | 463 kts | 103° |
| 2026-04-24 19:30 | 42.46484 | 9.89422 | 35133 ft | 469 kts | 118° |
| 2026-04-24 19:31 | 42.42536 | 9.96528 | 35130 ft | 473 kts | 127° |
| 2026-04-24 19:31 | 42.38318 | 10.03393 | 35130 ft | 474 kts | 127° |
| 2026-04-24 19:32 | 42.34109 | 10.10288 | 35129 ft | 475 kts | 126° |
| 2026-04-24 19:32 | 42.29951 | 10.17148 | 35128 ft | 475 kts | 126° |
| 2026-04-24 19:33 | 42.25764 | 10.24063 | 35139 ft | 475 kts | 126° |
| 2026-04-24 19:33 | 42.21576 | 10.30968 | 35128 ft | 474 kts | 126° |
| 2026-04-24 19:34 | 42.17395 | 10.37843 | 35132 ft | 474 kts | 126° |
| 2026-04-24 19:34 | 42.13218 | 10.44694 | 35137 ft | 473 kts | 126° |
| 2026-04-24 19:35 | 42.09036 | 10.51536 | 35129 ft | 473 kts | 126° |
| 2026-04-24 19:35 | 42.04852 | 10.58367 | 35146 ft | 473 kts | 126° |
| 2026-04-24 19:36 | 42.00666 | 10.65184 | 35131 ft | 472 kts | 126° |
| 2026-04-24 19:36 | 41.96505 | 10.71946 | 35127 ft | 472 kts | 126° |
| 2026-04-24 19:37 | 41.92316 | 10.78740 | 35131 ft | 472 kts | 127° |
| 2026-04-24 19:37 | 41.88833 | 10.84376 | 35140 ft | 471 kts | 127° |
| 2026-04-24 19:38 | 41.84636 | 10.91152 | 35126 ft | 472 kts | 127° |
| 2026-04-24 19:38 | 41.80438 | 10.97917 | 35132 ft | 472 kts | 127° |
| 2026-04-24 19:39 | 41.76230 | 11.04681 | 35132 ft | 472 kts | 127° |
| 2026-04-24 19:39 | 41.72010 | 11.11449 | 35124 ft | 473 kts | 127° |
| 2026-04-24 19:40 | 41.67812 | 11.18166 | 35127 ft | 473 kts | 127° |
| 2026-04-24 19:40 | 41.63587 | 11.24912 | 35130 ft | 474 kts | 127° |
| 2026-04-24 19:41 | 41.59348 | 11.31665 | 35146 ft | 474 kts | 127° |
| 2026-04-24 19:41 | 41.55099 | 11.38419 | 35132 ft | 474 kts | 127° |
| 2026-04-24 19:42 | 41.50852 | 11.45154 | 35132 ft | 474 kts | 127° |
| 2026-04-24 19:42 | 41.46600 | 11.51881 | 35127 ft | 473 kts | 127° |
| 2026-04-24 19:43 | 41.42384 | 11.58538 | 35127 ft | 473 kts | 127° |
| 2026-04-24 19:43 | 41.38134 | 11.65234 | 35134 ft | 473 kts | 127° |
| 2026-04-24 19:44 | 41.33878 | 11.71925 | 35137 ft | 473 kts | 127° |
| 2026-04-24 19:44 | 41.29638 | 11.78574 | 35127 ft | 474 kts | 127° |
| 2026-04-24 19:45 | 41.25364 | 11.85263 | 35131 ft | 474 kts | 127° |
| 2026-04-24 19:45 | 41.21091 | 11.91935 | 35128 ft | 474 kts | 127° |
| 2026-04-24 19:46 | 41.16809 | 11.98607 | 35126 ft | 474 kts | 127° |
| 2026-04-24 19:46 | 41.12522 | 12.05272 | 35143 ft | 475 kts | 128° |
| 2026-04-24 19:47 | 41.08230 | 12.11930 | 35121 ft | 475 kts | 128° |
| 2026-04-24 19:47 | 41.03925 | 12.18593 | 35130 ft | 475 kts | 128° |
| 2026-04-24 19:48 | 40.99616 | 12.25247 | 35136 ft | 475 kts | 128° |
| 2026-04-24 19:48 | 40.93178 | 12.35162 | 35126 ft | 475 kts | 128° |
| 2026-04-24 19:49 | 40.84534 | 12.48425 | 35129 ft | 476 kts | 128° |
| 2026-04-24 19:50 | 40.75876 | 12.61652 | 35131 ft | 476 kts | 128° |
| 2026-04-24 19:51 | 40.69364 | 12.71561 | 35131 ft | 476 kts | 128° |
| 2026-04-24 19:52 | 40.62875 | 12.81406 | 35144 ft | 476 kts | 129° |
| 2026-04-24 19:52 | 40.58521 | 12.87993 | 35129 ft | 477 kts | 129° |
| 2026-04-24 19:53 | 40.54161 | 12.94574 | 35134 ft | 477 kts | 129° |
| 2026-04-24 19:54 | 40.47607 | 13.04443 | 35126 ft | 478 kts | 129° |
| 2026-04-24 19:54 | 40.43227 | 13.11019 | 35127 ft | 478 kts | 129° |
| 2026-04-24 19:55 | 40.39586 | 13.16476 | 35132 ft | 478 kts | 129° |
| 2026-04-24 19:55 | 40.34497 | 13.24090 | 35120 ft | 478 kts | 129° |
| 2026-04-24 19:56 | 40.30111 | 13.30638 | 35126 ft | 478 kts | 128° |
| 2026-04-24 19:56 | 40.25946 | 13.37420 | 35128 ft | 477 kts | 126° |
| 2026-04-24 19:57 | 40.21887 | 13.44243 | 35127 ft | 478 kts | 126° |
| 2026-04-24 19:57 | 40.17792 | 13.51104 | 35138 ft | 478 kts | 126° |
| 2026-04-24 19:58 | 40.13683 | 13.57943 | 35121 ft | 477 kts | 126° |
| 2026-04-24 19:58 | 40.09578 | 13.64746 | 35122 ft | 476 kts | 126° |
| 2026-04-24 19:59 | 40.05470 | 13.71537 | 35118 ft | 477 kts | 126° |
| 2026-04-24 19:59 | 40.01355 | 13.78327 | 35125 ft | 477 kts | 126° |
| 2026-04-24 20:00 | 39.97250 | 13.85086 | 35122 ft | 478 kts | 126° |
| 2026-04-24 20:00 | 39.93115 | 13.91879 | 35125 ft | 478 kts | 126° |
| 2026-04-24 20:01 | 39.88973 | 13.98670 | 35119 ft | 478 kts | 126° |
| 2026-04-24 20:01 | 39.84826 | 14.05454 | 35118 ft | 478 kts | 126° |
| 2026-04-24 20:02 | 39.81386 | 14.11070 | 35116 ft | 477 kts | 126° |
| 2026-04-24 20:02 | 39.76575 | 14.18908 | 35116 ft | 476 kts | 126° |
| 2026-04-24 20:03 | 39.72435 | 14.25636 | 35127 ft | 476 kts | 126° |
| 2026-04-24 20:03 | 39.68300 | 14.32342 | 35118 ft | 475 kts | 126° |
| 2026-04-24 20:04 | 39.64167 | 14.39032 | 35114 ft | 474 kts | 126° |
| 2026-04-24 20:04 | 39.60040 | 14.45697 | 35117 ft | 474 kts | 126° |
| 2026-04-24 20:05 | 39.55911 | 14.52353 | 35113 ft | 473 kts | 126° |
| 2026-04-24 20:05 | 39.51797 | 14.58969 | 35115 ft | 475 kts | 126° |
| 2026-04-24 20:06 | 39.47634 | 14.65651 | 35119 ft | 477 kts | 126° |
| 2026-04-24 20:06 | 39.43453 | 14.72348 | 35120 ft | 479 kts | 127° |
| 2026-04-24 20:07 | 39.39960 | 14.77930 | 35118 ft | 480 kts | 127° |
| 2026-04-24 20:07 | 39.35038 | 14.85781 | 35116 ft | 481 kts | 127° |
| 2026-04-24 20:08 | 39.30823 | 14.92486 | 35128 ft | 481 kts | 127° |
| 2026-04-24 20:08 | 39.26609 | 14.99177 | 35110 ft | 480 kts | 127° |
| 2026-04-24 20:09 | 39.22393 | 15.05859 | 35130 ft | 480 kts | 127° |
| 2026-04-24 20:09 | 39.18198 | 15.12492 | 35115 ft | 480 kts | 127° |
| 2026-04-24 20:10 | 39.13974 | 15.19158 | 35113 ft | 480 kts | 127° |
| 2026-04-24 20:10 | 39.09740 | 15.25825 | 35129 ft | 480 kts | 127° |
| 2026-04-24 20:11 | 39.05502 | 15.32484 | 35124 ft | 480 kts | 126° |
| 2026-04-24 20:11 | 39.01264 | 15.39130 | 35115 ft | 480 kts | 127° |
| 2026-04-24 20:12 | 38.97018 | 15.45775 | 35116 ft | 481 kts | 127° |
| 2026-04-24 20:12 | 38.92793 | 15.52373 | 35120 ft | 482 kts | 127° |
| 2026-04-24 20:13 | 38.88523 | 15.59026 | 35119 ft | 483 kts | 127° |
| 2026-04-24 20:13 | 38.84245 | 15.65679 | 35129 ft | 483 kts | 127° |
| 2026-04-24 20:14 | 38.79960 | 15.72329 | 35123 ft | 483 kts | 127° |
| 2026-04-24 20:14 | 38.75674 | 15.78966 | 35121 ft | 483 kts | 127° |
| 2026-04-24 20:15 | 38.71388 | 15.85588 | 35124 ft | 482 kts | 127° |
| 2026-04-24 20:15 | 38.67126 | 15.92163 | 35122 ft | 483 kts | 127° |
| 2026-04-24 20:16 | 38.62821 | 15.98789 | 35131 ft | 485 kts | 127° |
| 2026-04-24 20:16 | 38.58500 | 16.05426 | 35135 ft | 486 kts | 127° |
| 2026-04-24 20:17 | 38.54160 | 16.12078 | 35127 ft | 487 kts | 127° |
| 2026-04-24 20:17 | 38.47637 | 16.22049 | 35114 ft | 488 kts | 127° |
| 2026-04-24 20:18 | 38.43320 | 16.28631 | 35128 ft | 487 kts | 127° |
| 2026-04-24 20:18 | 38.38961 | 16.35264 | 35123 ft | 488 kts | 127° |
| 2026-04-24 20:19 | 38.34585 | 16.41911 | 35115 ft | 490 kts | 127° |
| 2026-04-24 20:19 | 38.30191 | 16.48570 | 35108 ft | 491 kts | 127° |
| 2026-04-24 20:20 | 38.25797 | 16.55215 | 35099 ft | 491 kts | 127° |
| 2026-04-24 20:20 | 38.21393 | 16.61863 | 35098 ft | 491 kts | 127° |
| 2026-04-24 20:21 | 38.16979 | 16.68512 | 35095 ft | 491 kts | 127° |
| 2026-04-24 20:21 | 38.12595 | 16.75105 | 35100 ft | 492 kts | 128° |
| 2026-04-24 20:22 | 38.08451 | 16.81987 | 35086 ft | 489 kts | 119° |
| 2026-04-24 20:22 | 38.04854 | 16.89306 | 35096 ft | 489 kts | 119° |
| 2026-04-24 20:23 | 38.01253 | 16.96643 | 35090 ft | 490 kts | 119° |
| 2026-04-24 20:23 | 37.97617 | 17.03970 | 35091 ft | 490 kts | 120° |
| 2026-04-24 20:24 | 37.93964 | 17.11272 | 35093 ft | 491 kts | 120° |
| 2026-04-24 20:24 | 37.90303 | 17.18568 | 35086 ft | 490 kts | 120° |
| 2026-04-24 20:25 | 37.86642 | 17.25850 | 35084 ft | 490 kts | 120° |
| 2026-04-24 20:25 | 37.82985 | 17.33112 | 35083 ft | 489 kts | 120° |
| 2026-04-24 20:26 | 37.79341 | 17.40333 | 35090 ft | 491 kts | 120° |
| 2026-04-24 20:26 | 37.75656 | 17.47621 | 35089 ft | 492 kts | 120° |
| 2026-04-24 20:27 | 37.71959 | 17.54914 | 35085 ft | 493 kts | 120° |
| 2026-04-24 20:27 | 37.68250 | 17.62213 | 35081 ft | 494 kts | 120° |
| 2026-04-24 20:28 | 37.64530 | 17.69518 | 35079 ft | 494 kts | 120° |
| 2026-04-24 20:28 | 37.61436 | 17.75583 | 35091 ft | 494 kts | 120° |
| 2026-04-24 20:29 | 37.57708 | 17.82874 | 35083 ft | 494 kts | 120° |
| 2026-04-24 20:29 | 37.53379 | 17.91320 | 35076 ft | 493 kts | 120° |
| 2026-04-24 20:30 | 37.49657 | 17.98566 | 35076 ft | 492 kts | 120° |
| 2026-04-24 20:30 | 37.46533 | 18.04636 | 35081 ft | 493 kts | 121° |
| 2026-04-24 20:31 | 37.42815 | 18.11847 | 35069 ft | 494 kts | 121° |
| 2026-04-24 20:31 | 37.39062 | 18.19107 | 35075 ft | 495 kts | 121° |
| 2026-04-24 20:32 | 37.35300 | 18.26370 | 35069 ft | 496 kts | 121° |
| 2026-04-24 20:32 | 37.31547 | 18.33600 | 35069 ft | 497 kts | 121° |
| 2026-04-24 20:33 | 37.27765 | 18.40869 | 35069 ft | 497 kts | 121° |
| 2026-04-24 20:33 | 37.23979 | 18.48130 | 35066 ft | 497 kts | 121° |
| 2026-04-24 20:34 | 37.20194 | 18.55374 | 35063 ft | 496 kts | 121° |
| 2026-04-24 20:34 | 37.16414 | 18.62593 | 35069 ft | 495 kts | 121° |
| 2026-04-24 20:35 | 37.12632 | 18.69799 | 35059 ft | 495 kts | 121° |
| 2026-04-24 20:35 | 37.08868 | 18.76957 | 35062 ft | 495 kts | 121° |
| 2026-04-24 20:36 | 37.05067 | 18.84172 | 35070 ft | 496 kts | 121° |
| 2026-04-24 20:36 | 37.01257 | 18.91386 | 35061 ft | 497 kts | 121° |
| 2026-04-24 20:37 | 36.97442 | 18.98597 | 35058 ft | 497 kts | 121° |
| 2026-04-24 20:37 | 36.93709 | 19.05802 | 35056 ft | 496 kts | 120° |
| 2026-04-24 20:38 | 36.90047 | 19.13118 | 35065 ft | 496 kts | 120° |
| 2026-04-24 20:38 | 36.86384 | 19.20437 | 35055 ft | 497 kts | 120° |
| 2026-04-24 20:39 | 36.82705 | 19.27732 | 35051 ft | 497 kts | 120° |
| 2026-04-24 20:39 | 36.79007 | 19.35026 | 35051 ft | 496 kts | 120° |
| 2026-04-24 20:40 | 36.75335 | 19.42248 | 35047 ft | 496 kts | 120° |
| 2026-04-24 20:40 | 36.71633 | 19.49514 | 35060 ft | 496 kts | 120° |
| 2026-04-24 20:41 | 36.67920 | 19.56791 | 35046 ft | 497 kts | 120° |
| 2026-04-24 20:41 | 36.64208 | 19.64047 | 35046 ft | 496 kts | 120° |
| 2026-04-24 20:42 | 36.60519 | 19.71245 | 35046 ft | 496 kts | 120° |
| 2026-04-24 20:42 | 36.56798 | 19.78490 | 35046 ft | 496 kts | 120° |
| 2026-04-24 20:43 | 36.53076 | 19.85720 | 35047 ft | 497 kts | 120° |
| 2026-04-24 20:43 | 36.49344 | 19.92954 | 35041 ft | 497 kts | 120° |
| 2026-04-24 20:44 | 36.45603 | 20.00192 | 35037 ft | 498 kts | 120° |
| 2026-04-24 20:44 | 36.41873 | 20.07390 | 35039 ft | 499 kts | 120° |
| 2026-04-24 20:45 | 36.38112 | 20.14634 | 35057 ft | 500 kts | 120° |
| 2026-04-24 20:45 | 36.34333 | 20.21898 | 35024 ft | 501 kts | 120° |
| 2026-04-24 20:46 | 36.30544 | 20.29165 | 35039 ft | 502 kts | 120° |
| 2026-04-24 20:46 | 36.26742 | 20.36441 | 35041 ft | 502 kts | 120° |
| 2026-04-24 20:47 | 36.22965 | 20.43656 | 35040 ft | 502 kts | 120° |
| 2026-04-24 20:47 | 36.19158 | 20.50910 | 35044 ft | 502 kts | 120° |
| 2026-04-24 20:48 | 36.15347 | 20.58158 | 35035 ft | 502 kts | 120° |
| 2026-04-24 20:48 | 36.11523 | 20.65413 | 35029 ft | 503 kts | 120° |
| 2026-04-24 20:49 | 36.07691 | 20.72671 | 35030 ft | 503 kts | 120° |
| 2026-04-24 20:49 | 36.03878 | 20.79876 | 35026 ft | 504 kts | 121° |
| 2026-04-24 20:50 | 36.00027 | 20.87139 | 35031 ft | 506 kts | 121° |
| 2026-04-24 20:50 | 35.96158 | 20.94419 | 35024 ft | 507 kts | 121° |
| 2026-04-24 20:51 | 35.92278 | 21.01704 | 35027 ft | 508 kts | 121° |
| 2026-04-24 20:51 | 35.88386 | 21.08998 | 35021 ft | 509 kts | 121° |
| 2026-04-24 20:52 | 35.84513 | 21.16240 | 35040 ft | 509 kts | 122° |
| 2026-04-24 20:52 | 35.80617 | 21.23509 | 35022 ft | 507 kts | 122° |
| 2026-04-24 20:53 | 35.76733 | 21.30741 | 35011 ft | 506 kts | 122° |
| 2026-04-24 20:53 | 35.72848 | 21.37958 | 35018 ft | 505 kts | 122° |
| 2026-04-24 20:54 | 35.68953 | 21.45181 | 35020 ft | 506 kts | 122° |
| 2026-04-24 20:54 | 35.65048 | 21.52408 | 35020 ft | 507 kts | 122° |
| 2026-04-24 20:55 | 35.61137 | 21.59629 | 35018 ft | 508 kts | 122° |
| 2026-04-24 20:55 | 35.57236 | 21.66819 | 35017 ft | 509 kts | 122° |
| 2026-04-24 20:56 | 35.53301 | 21.74055 | 35016 ft | 509 kts | 122° |
| 2026-04-24 20:56 | 35.49359 | 21.81288 | 35021 ft | 509 kts | 123° |
| 2026-04-24 20:57 | 35.45422 | 21.88499 | 35002 ft | 507 kts | 123° |
| 2026-04-24 20:57 | 35.41492 | 21.95680 | 34996 ft | 505 kts | 123° |
| 2026-04-24 20:58 | 35.37595 | 22.02788 | 35000 ft | 505 kts | 123° |
| 2026-04-24 20:58 | 35.33671 | 22.09928 | 35000 ft | 505 kts | 123° |
| 2026-04-24 20:59 | 35.29737 | 22.17077 | 34997 ft | 507 kts | 124° |
| 2026-04-24 20:59 | 35.25781 | 22.24246 | 34996 ft | 509 kts | 124° |
| 2026-04-24 21:00 | 35.21814 | 22.31421 | 34994 ft | 510 kts | 124° |
| 2026-04-24 21:00 | 35.17833 | 22.38607 | 34995 ft | 510 kts | 124° |
| 2026-04-24 21:01 | 35.13878 | 22.45733 | 34978 ft | 510 kts | 124° |
| 2026-04-24 21:01 | 35.09905 | 22.52878 | 34977 ft | 507 kts | 125° |
| 2026-04-24 21:02 | 35.05945 | 22.59982 | 34980 ft | 504 kts | 125° |
| 2026-04-24 21:02 | 35.01985 | 22.67075 | 34972 ft | 508 kts | 126° |
| 2026-04-24 21:03 | 34.97972 | 22.74240 | 34967 ft | 513 kts | 126° |
| 2026-04-24 21:03 | 34.93946 | 22.81421 | 34960 ft | 508 kts | 126° |
| 2026-04-24 21:04 | 34.89995 | 22.88461 | 34949 ft | 500 kts | 126° |
| 2026-04-24 21:04 | 34.86072 | 22.95428 | 34961 ft | 502 kts | 126° |
| 2026-04-24 21:05 | 34.82110 | 23.02449 | 34951 ft | 503 kts | 126° |
| 2026-04-24 21:05 | 34.78144 | 23.09466 | 34952 ft | 504 kts | 126° |
| 2026-04-24 21:06 | 34.74161 | 23.16501 | 34951 ft | 504 kts | 127° |
| 2026-04-24 21:06 | 34.70183 | 23.23511 | 34946 ft | 504 kts | 127° |
| 2026-04-24 21:07 | 34.66229 | 23.30467 | 34929 ft | 503 kts | 128° |
| 2026-04-24 21:07 | 34.62239 | 23.37470 | 34939 ft | 503 kts | 128° |
| 2026-04-24 21:08 | 34.58249 | 23.44459 | 34925 ft | 504 kts | 129° |
| 2026-04-24 21:08 | 34.54250 | 23.51454 | 34933 ft | 503 kts | 129° |
| 2026-04-24 21:09 | 34.50279 | 23.58382 | 34937 ft | 503 kts | 129° |
| 2026-04-24 21:09 | 34.46285 | 23.65340 | 34929 ft | 503 kts | 129° |
| 2026-04-24 21:10 | 34.42283 | 23.72296 | 34933 ft | 503 kts | 129° |
| 2026-04-24 21:10 | 34.38285 | 23.79236 | 34915 ft | 501 kts | 130° |
| 2026-04-24 21:11 | 34.34291 | 23.86151 | 34919 ft | 501 kts | 130° |
| 2026-04-24 21:11 | 34.30298 | 23.93051 | 34906 ft | 500 kts | 130° |
| 2026-04-24 21:12 | 34.26974 | 23.98786 | 34915 ft | 501 kts | 130° |
| 2026-04-24 21:12 | 34.22313 | 24.06811 | 34921 ft | 502 kts | 130° |
| 2026-04-24 21:13 | 34.18295 | 24.13717 | 34916 ft | 504 kts | 131° |
| 2026-04-24 21:13 | 34.14250 | 24.20653 | 34911 ft | 505 kts | 131° |
| 2026-04-24 21:14 | 34.10191 | 24.27604 | 34905 ft | 507 kts | 131° |
| 2026-04-24 21:14 | 34.06121 | 24.34561 | 34904 ft | 507 kts | 131° |
| 2026-04-24 21:15 | 34.02075 | 24.41462 | 34892 ft | 506 kts | 131° |
| 2026-04-24 21:15 | 33.97543 | 24.47805 | 34894 ft | 494 kts | 143° |
| 2026-04-24 21:16 | 33.92421 | 24.53259 | 34885 ft | 489 kts | 144° |
| 2026-04-24 21:16 | 33.87304 | 24.58677 | 34882 ft | 489 kts | 144° |
| 2026-04-24 21:17 | 33.82211 | 24.64113 | 34883 ft | 490 kts | 144° |
| 2026-04-24 21:17 | 33.77978 | 24.68647 | 34883 ft | 490 kts | 144° |
| 2026-04-24 21:18 | 33.72054 | 24.74989 | 34877 ft | 491 kts | 144° |
| 2026-04-24 21:18 | 33.66948 | 24.80444 | 34874 ft | 491 kts | 144° |
| 2026-04-24 21:19 | 33.61836 | 24.85895 | 34849 ft | 492 kts | 144° |
| 2026-04-24 21:19 | 33.56708 | 24.91353 | 34872 ft | 494 kts | 144° |
| 2026-04-24 21:20 | 33.48980 | 24.99562 | 34867 ft | 496 kts | 144° |
| 2026-04-24 21:21 | 33.43799 | 25.05055 | 34859 ft | 497 kts | 144° |
| 2026-04-24 21:21 | 33.38603 | 25.10553 | 34858 ft | 499 kts | 144° |
| 2026-04-24 21:22 | 33.33432 | 25.16017 | 34865 ft | 500 kts | 144° |
| 2026-04-24 21:22 | 33.28212 | 25.21523 | 34862 ft | 500 kts | 144° |
| 2026-04-24 21:23 | 33.22995 | 25.27019 | 34863 ft | 500 kts | 144° |
| 2026-04-24 21:23 | 33.17771 | 25.32512 | 34859 ft | 500 kts | 144° |
| 2026-04-24 21:24 | 33.12556 | 25.37986 | 34847 ft | 499 kts | 144° |
| 2026-04-24 21:24 | 33.07345 | 25.43446 | 34858 ft | 498 kts | 144° |
| 2026-04-24 21:25 | 33.03013 | 25.47978 | 34858 ft | 498 kts | 144° |
| 2026-04-24 21:25 | 32.97798 | 25.53425 | 34852 ft | 499 kts | 144° |
| 2026-04-24 21:26 | 32.92574 | 25.58874 | 34863 ft | 499 kts | 144° |
| 2026-04-24 21:26 | 32.87382 | 25.64280 | 34833 ft | 500 kts | 144° |
| 2026-04-24 21:27 | 32.82147 | 25.69722 | 34856 ft | 499 kts | 144° |
| 2026-04-24 21:27 | 32.76907 | 25.75162 | 34861 ft | 499 kts | 144° |
| 2026-04-24 21:28 | 32.71679 | 25.80579 | 34862 ft | 499 kts | 144° |
| 2026-04-24 21:28 | 32.66454 | 25.85985 | 34856 ft | 498 kts | 144° |
| 2026-04-24 21:29 | 32.61232 | 25.91380 | 34857 ft | 497 kts | 144° |
| 2026-04-24 21:29 | 32.56017 | 25.96757 | 34843 ft | 496 kts | 144° |
| 2026-04-24 21:30 | 32.50854 | 26.02074 | 34852 ft | 494 kts | 144° |
| 2026-04-24 21:30 | 32.45659 | 26.07413 | 34856 ft | 493 kts | 144° |
| 2026-04-24 21:31 | 32.40472 | 26.12736 | 34858 ft | 493 kts | 144° |
| 2026-04-24 21:31 | 32.35279 | 26.18057 | 34850 ft | 493 kts | 144° |
| 2026-04-24 21:32 | 32.30090 | 26.23366 | 34858 ft | 494 kts | 144° |
| 2026-04-24 21:32 | 32.24884 | 26.28682 | 34856 ft | 495 kts | 145° |
| 2026-04-24 21:33 | 32.19698 | 26.33971 | 34858 ft | 496 kts | 145° |
| 2026-04-24 21:33 | 32.14466 | 26.39300 | 34856 ft | 496 kts | 145° |
| 2026-04-24 21:34 | 32.09228 | 26.44626 | 34859 ft | 497 kts | 145° |
| 2026-04-24 21:34 | 32.03990 | 26.49941 | 34851 ft | 497 kts | 146° |
| 2026-04-24 21:35 | 31.98747 | 26.55257 | 34853 ft | 497 kts | 146° |
| 2026-04-24 21:35 | 31.93494 | 26.60574 | 34850 ft | 497 kts | 146° |
| 2026-04-24 21:36 | 31.88249 | 26.65874 | 34857 ft | 496 kts | 146° |
| 2026-04-24 21:36 | 31.83009 | 26.71159 | 34847 ft | 496 kts | 146° |
| 2026-04-24 21:37 | 31.77765 | 26.76441 | 34857 ft | 496 kts | 146° |
| 2026-04-24 21:37 | 31.72526 | 26.81710 | 34839 ft | 495 kts | 147° |
| 2026-04-24 21:38 | 31.67291 | 26.86966 | 34835 ft | 495 kts | 147° |
| 2026-04-24 21:38 | 31.62088 | 26.92183 | 34844 ft | 495 kts | 147° |
| 2026-04-24 21:39 | 31.56852 | 26.97425 | 34846 ft | 495 kts | 147° |
| 2026-04-24 21:39 | 31.51615 | 27.02659 | 34846 ft | 494 kts | 147° |
| 2026-04-24 21:40 | 31.46377 | 27.07888 | 34839 ft | 494 kts | 147° |
| 2026-04-24 21:40 | 31.41138 | 27.13109 | 34828 ft | 494 kts | 146° |
| 2026-04-24 21:41 | 31.35900 | 27.18323 | 34833 ft | 494 kts | 146° |
| 2026-04-24 21:41 | 31.31024 | 27.24003 | 34867 ft | 504 kts | 136° |
| 2026-04-24 21:42 | 31.26923 | 27.30791 | 35250 ft | 513 kts | 129° |
| 2026-04-24 21:42 | 31.24959 | 27.34276 | 35567 ft | 512 kts | 129° |
| 2026-04-24 21:42 | 31.22995 | 27.37738 | 35893 ft | 511 kts | 130° |
| 2026-04-24 21:42 | 31.21010 | 27.41197 | 36183 ft | 510 kts | 130° |
| 2026-04-24 21:43 | 31.19021 | 27.44632 | 36437 ft | 511 kts | 130° |
| 2026-04-24 21:43 | 31.17024 | 27.48067 | 36648 ft | 512 kts | 130° |
| 2026-04-24 21:43 | 31.15018 | 27.51513 | 36746 ft | 514 kts | 130° |
| 2026-04-24 21:44 | 31.10971 | 27.58422 | 36827 ft | 515 kts | 131° |
| 2026-04-24 21:44 | 31.06912 | 27.65214 | 36825 ft | 512 kts | 131° |
| 2026-04-24 21:45 | 31.02840 | 27.72001 | 36818 ft | 510 kts | 131° |
| 2026-04-24 21:45 | 30.98776 | 27.78776 | 36840 ft | 510 kts | 131° |
| 2026-04-24 21:46 | 30.94703 | 27.85567 | 36833 ft | 512 kts | 131° |
| 2026-04-24 21:46 | 30.90610 | 27.92383 | 36832 ft | 514 kts | 131° |
| 2026-04-24 21:47 | 30.86505 | 27.99208 | 36824 ft | 515 kts | 131° |
| 2026-04-24 21:47 | 30.82381 | 28.06051 | 36812 ft | 516 kts | 131° |
| 2026-04-24 21:48 | 30.78257 | 28.12885 | 36804 ft | 515 kts | 130° |
| 2026-04-24 21:48 | 30.74163 | 28.19658 | 36800 ft | 514 kts | 130° |
| 2026-04-24 21:49 | 30.70053 | 28.26443 | 36794 ft | 513 kts | 130° |
| 2026-04-24 21:49 | 30.65949 | 28.33206 | 36791 ft | 511 kts | 131° |
| 2026-04-24 21:50 | 30.61854 | 28.39943 | 36789 ft | 510 kts | 130° |
| 2026-04-24 21:50 | 30.57759 | 28.46668 | 36802 ft | 510 kts | 130° |
| 2026-04-24 21:51 | 30.53652 | 28.53401 | 36806 ft | 511 kts | 130° |
| 2026-04-24 21:51 | 30.49544 | 28.60125 | 36832 ft | 511 kts | 130° |
| 2026-04-24 21:52 | 30.45423 | 28.66860 | 36849 ft | 512 kts | 130° |
| 2026-04-24 21:52 | 30.41317 | 28.73559 | 36861 ft | 513 kts | 130° |
| 2026-04-24 21:53 | 30.37175 | 28.80307 | 36892 ft | 514 kts | 131° |
| 2026-04-24 21:53 | 30.33021 | 28.87062 | 36884 ft | 514 kts | 131° |
| 2026-04-24 21:54 | 30.28869 | 28.93802 | 36897 ft | 515 kts | 131° |
| 2026-04-24 21:54 | 30.24735 | 29.00504 | 36891 ft | 515 kts | 131° |
| 2026-04-24 21:55 | 30.20567 | 29.07250 | 36887 ft | 516 kts | 131° |
| 2026-04-24 21:55 | 30.16381 | 29.14006 | 36905 ft | 517 kts | 131° |
| 2026-04-24 21:56 | 30.12175 | 29.20783 | 36894 ft | 519 kts | 131° |
| 2026-04-24 21:56 | 30.08039 | 29.27588 | 36893 ft | 521 kts | 130° |
| 2026-04-24 21:57 | 30.03914 | 29.34465 | 36891 ft | 521 kts | 130° |
| 2026-04-24 21:57 | 29.99787 | 29.41322 | 36891 ft | 520 kts | 130° |
| 2026-04-24 21:58 | 29.95652 | 29.48157 | 36888 ft | 519 kts | 130° |
| 2026-04-24 21:58 | 29.91513 | 29.54978 | 36874 ft | 518 kts | 130° |
| 2026-04-24 21:59 | 29.87409 | 29.61731 | 36879 ft | 517 kts | 130° |
| 2026-04-24 21:59 | 29.83285 | 29.68507 | 36883 ft | 516 kts | 130° |
| 2026-04-24 22:00 | 29.79164 | 29.75269 | 36876 ft | 515 kts | 130° |
| 2026-04-24 22:00 | 29.75040 | 29.82023 | 36880 ft | 515 kts | 130° |
| 2026-04-24 22:01 | 29.70937 | 29.88731 | 36877 ft | 516 kts | 130° |
| 2026-04-24 22:01 | 29.66803 | 29.95479 | 36878 ft | 517 kts | 130° |
| 2026-04-24 22:02 | 29.62652 | 30.02243 | 36877 ft | 518 kts | 130° |
| 2026-04-24 22:02 | 29.58491 | 30.09014 | 36875 ft | 519 kts | 130° |
| 2026-04-24 22:03 | 29.54322 | 30.15787 | 36874 ft | 519 kts | 130° |
| 2026-04-24 22:03 | 29.50147 | 30.22561 | 36871 ft | 519 kts | 130° |
| 2026-04-24 22:04 | 29.45969 | 30.29326 | 36871 ft | 519 kts | 130° |
| 2026-04-24 22:04 | 29.41791 | 30.36083 | 36850 ft | 519 kts | 130° |
| 2026-04-24 22:05 | 29.37325 | 30.42434 | 36864 ft | 510 kts | 140° |
| 2026-04-24 22:05 | 29.32370 | 30.48265 | 36869 ft | 511 kts | 141° |
| 2026-04-24 22:06 | 29.27376 | 30.54114 | 36875 ft | 513 kts | 140° |
| 2026-04-24 22:06 | 29.22400 | 30.60001 | 36873 ft | 515 kts | 140° |
| 2026-04-24 22:07 | 29.17419 | 30.65919 | 36868 ft | 516 kts | 140° |
| 2026-04-24 22:07 | 29.12432 | 30.71838 | 36866 ft | 517 kts | 140° |
| 2026-04-24 22:08 | 29.07443 | 30.77747 | 36870 ft | 516 kts | 140° |
| 2026-04-24 22:08 | 29.02442 | 30.83658 | 36856 ft | 516 kts | 140° |
| 2026-04-24 22:09 | 28.97473 | 30.89521 | 36870 ft | 516 kts | 140° |
| 2026-04-24 22:09 | 28.92472 | 30.95415 | 36875 ft | 517 kts | 140° |
| 2026-04-24 22:10 | 28.87456 | 31.01319 | 36873 ft | 518 kts | 141° |
| 2026-04-24 22:10 | 28.82428 | 31.07226 | 36880 ft | 519 kts | 141° |
| 2026-04-24 22:11 | 28.77392 | 31.13137 | 36880 ft | 520 kts | 141° |
| 2026-04-24 22:11 | 28.72379 | 31.19014 | 36887 ft | 520 kts | 141° |
| 2026-04-24 22:12 | 28.67367 | 31.24966 | 36841 ft | 522 kts | 139° |
| 2026-04-24 22:12 | 28.62502 | 31.31126 | 36891 ft | 524 kts | 138° |
| 2026-04-24 22:13 | 28.57647 | 31.37335 | 36895 ft | 526 kts | 139° |
| 2026-04-24 22:13 | 28.52744 | 31.43535 | 36899 ft | 527 kts | 139° |
| 2026-04-24 22:14 | 28.47804 | 31.49736 | 36891 ft | 528 kts | 139° |
| 2026-04-24 22:14 | 28.42862 | 31.55926 | 36884 ft | 529 kts | 139° |
| 2026-04-24 22:15 | 28.37950 | 31.62074 | 36896 ft | 528 kts | 139° |
| 2026-04-24 22:15 | 28.33009 | 31.68251 | 36894 ft | 528 kts | 139° |
| 2026-04-24 22:16 | 28.28074 | 31.74411 | 36902 ft | 527 kts | 139° |
| 2026-04-24 22:16 | 28.23136 | 31.80565 | 36886 ft | 527 kts | 140° |
| 2026-04-24 22:17 | 28.19029 | 31.85675 | 36904 ft | 528 kts | 140° |
| 2026-04-24 22:17 | 28.14081 | 31.91825 | 36907 ft | 528 kts | 140° |
| 2026-04-24 22:18 | 28.09124 | 31.97980 | 36911 ft | 529 kts | 140° |
| 2026-04-24 22:18 | 28.04242 | 32.04252 | 36914 ft | 534 kts | 134° |
| 2026-04-24 22:19 | 28.00168 | 32.11376 | 36915 ft | 544 kts | 124° |
| 2026-04-24 22:19 | 27.96602 | 32.18935 | 36921 ft | 544 kts | 124° |
| 2026-04-24 22:20 | 27.93055 | 32.26439 | 36921 ft | 544 kts | 124° |
| 2026-04-24 22:20 | 27.89445 | 32.33952 | 36886 ft | 543 kts | 124° |
| 2026-04-24 22:21 | 27.85820 | 32.41433 | 36917 ft | 543 kts | 125° |
| 2026-04-24 22:21 | 27.82182 | 32.48921 | 36927 ft | 544 kts | 125° |
| 2026-04-24 22:22 | 27.78540 | 32.56414 | 36922 ft | 545 kts | 125° |
| 2026-04-24 22:22 | 27.74890 | 32.63917 | 36898 ft | 545 kts | 125° |
| 2026-04-24 22:23 | 27.71255 | 32.71373 | 36909 ft | 546 kts | 125° |
| 2026-04-24 22:23 | 27.67584 | 32.78888 | 36920 ft | 546 kts | 125° |
| 2026-04-24 22:24 | 27.63908 | 32.86405 | 36914 ft | 547 kts | 125° |
| 2026-04-24 22:24 | 27.60229 | 32.93912 | 36898 ft | 547 kts | 125° |
| 2026-04-24 22:25 | 27.56569 | 33.01370 | 36905 ft | 547 kts | 125° |
| 2026-04-24 22:25 | 27.52880 | 33.08869 | 36890 ft | 547 kts | 125° |
| 2026-04-24 22:26 | 27.49185 | 33.16373 | 36874 ft | 547 kts | 125° |
| 2026-04-24 22:26 | 27.45492 | 33.23854 | 36892 ft | 546 kts | 126° |
| 2026-04-24 22:27 | 27.41800 | 33.31324 | 36890 ft | 545 kts | 126° |
| 2026-04-24 22:27 | 27.38128 | 33.38741 | 36881 ft | 545 kts | 126° |
| 2026-04-24 22:28 | 27.34429 | 33.46198 | 36851 ft | 545 kts | 126° |
| 2026-04-24 22:28 | 27.30727 | 33.53652 | 36872 ft | 545 kts | 126° |
| 2026-04-24 22:29 | 27.25161 | 33.64842 | 36878 ft | 547 kts | 126° |
| 2026-04-24 22:29 | 27.21442 | 33.72306 | 36878 ft | 549 kts | 126° |
| 2026-04-24 22:30 | 27.17773 | 33.79776 | 36831 ft | 552 kts | 123° |
| 2026-04-24 22:30 | 27.14766 | 33.87792 | 36839 ft | 558 kts | 117° |
| 2026-04-24 22:31 | 27.11954 | 33.95945 | 36817 ft | 559 kts | 117° |
| 2026-04-24 22:31 | 27.09092 | 34.04062 | 36835 ft | 559 kts | 118° |
| 2026-04-24 22:32 | 27.06192 | 34.12150 | 36838 ft | 559 kts | 118° |
| 2026-04-24 22:32 | 27.03305 | 34.20194 | 36839 ft | 559 kts | 118° |
| 2026-04-24 22:33 | 27.00401 | 34.28291 | 36838 ft | 559 kts | 118° |
| 2026-04-24 22:33 | 26.97500 | 34.36384 | 36817 ft | 559 kts | 118° |
| 2026-04-24 22:34 | 26.94598 | 34.44469 | 36827 ft | 559 kts | 118° |
| 2026-04-24 22:34 | 26.91711 | 34.52494 | 36822 ft | 558 kts | 118° |
| 2026-04-24 22:35 | 26.88804 | 34.60556 | 36818 ft | 558 kts | 118° |
| 2026-04-24 22:35 | 26.85893 | 34.68609 | 36816 ft | 558 kts | 118° |
| 2026-04-24 22:36 | 26.82974 | 34.76672 | 36797 ft | 558 kts | 118° |
| 2026-04-24 22:36 | 26.80057 | 34.84714 | 36803 ft | 558 kts | 118° |
| 2026-04-24 22:37 | 26.77132 | 34.92760 | 36811 ft | 558 kts | 118° |
| 2026-04-24 22:37 | 26.74217 | 35.00738 | 36785 ft | 558 kts | 118° |
| 2026-04-24 22:38 | 26.71272 | 35.08766 | 36807 ft | 558 kts | 118° |
| 2026-04-24 22:38 | 26.68320 | 35.16800 | 36809 ft | 558 kts | 118° |
| 2026-04-24 22:39 | 26.65363 | 35.24836 | 36793 ft | 559 kts | 118° |
| 2026-04-24 22:39 | 26.62404 | 35.32867 | 36807 ft | 559 kts | 118° |
| 2026-04-24 22:40 | 26.59460 | 35.40839 | 36809 ft | 559 kts | 118° |
| 2026-04-24 22:40 | 26.56488 | 35.48868 | 36805 ft | 559 kts | 119° |
| 2026-04-24 22:41 | 26.53461 | 35.56856 | 36799 ft | 558 kts | 120° |
| 2026-04-24 22:41 | 26.50394 | 35.64822 | 36804 ft | 558 kts | 120° |
| 2026-04-24 22:42 | 26.47328 | 35.72787 | 36804 ft | 558 kts | 120° |
| 2026-04-24 22:42 | 26.44270 | 35.80749 | 36767 ft | 558 kts | 120° |
| 2026-04-24 22:43 | 26.41226 | 35.88666 | 36793 ft | 559 kts | 120° |
| 2026-04-24 22:43 | 26.38148 | 35.96651 | 36810 ft | 561 kts | 120° |
| 2026-04-24 22:44 | 26.35058 | 36.04649 | 36806 ft | 563 kts | 120° |
| 2026-04-24 22:44 | 26.31955 | 36.12669 | 36792 ft | 564 kts | 120° |
| 2026-04-24 22:45 | 26.28843 | 36.20694 | 36805 ft | 564 kts | 120° |
| 2026-04-24 22:45 | 26.25726 | 36.28720 | 36799 ft | 564 kts | 120° |
| 2026-04-24 22:46 | 26.22628 | 36.36681 | 36802 ft | 563 kts | 120° |
| 2026-04-24 22:46 | 26.19492 | 36.44723 | 36802 ft | 562 kts | 120° |
| 2026-04-24 22:47 | 26.16188 | 36.52509 | 36802 ft | 555 kts | 126° |
| 2026-04-24 22:47 | 26.12463 | 36.60012 | 36798 ft | 553 kts | 127° |
| 2026-04-24 22:48 | 26.08713 | 36.67494 | 36795 ft | 553 kts | 126° |
| 2026-04-24 22:48 | 26.04991 | 36.75006 | 36780 ft | 554 kts | 126° |
| 2026-04-24 22:49 | 26.01312 | 36.82467 | 36796 ft | 554 kts | 126° |
| 2026-04-24 22:49 | 25.97604 | 36.89974 | 36806 ft | 554 kts | 126° |
| 2026-04-24 22:50 | 25.93882 | 36.97487 | 36809 ft | 555 kts | 126° |
| 2026-04-24 22:50 | 25.90154 | 37.04998 | 36810 ft | 555 kts | 126° |
| 2026-04-24 22:51 | 25.86422 | 37.12506 | 36812 ft | 555 kts | 126° |
| 2026-04-24 22:51 | 25.82710 | 37.19964 | 36813 ft | 555 kts | 127° |
| 2026-04-24 22:52 | 25.78970 | 37.27467 | 36809 ft | 555 kts | 127° |
| 2026-04-24 22:52 | 25.75237 | 37.34961 | 36826 ft | 555 kts | 127° |
| 2026-04-24 22:53 | 25.71503 | 37.42451 | 36823 ft | 554 kts | 127° |
| 2026-04-24 22:53 | 25.67781 | 37.49908 | 36825 ft | 557 kts | 127° |
| 2026-04-24 22:54 | 25.64023 | 37.57420 | 36863 ft | 558 kts | 127° |
| 2026-04-24 22:54 | 25.60255 | 37.64944 | 36861 ft | 559 kts | 127° |
| 2026-04-24 22:55 | 25.56465 | 37.72488 | 36835 ft | 561 kts | 127° |
| 2026-04-24 22:55 | 25.52672 | 37.80035 | 36856 ft | 560 kts | 127° |
| 2026-04-24 22:56 | 25.48908 | 37.87517 | 36857 ft | 559 kts | 127° |
| 2026-04-24 22:56 | 25.45120 | 37.95026 | 36859 ft | 559 kts | 127° |
| 2026-04-24 22:57 | 25.41332 | 38.02525 | 36858 ft | 557 kts | 127° |
| 2026-04-24 22:57 | 25.37545 | 38.10010 | 36847 ft | 557 kts | 127° |
| 2026-04-24 22:58 | 25.33763 | 38.17477 | 36859 ft | 555 kts | 127° |
| 2026-04-24 22:58 | 25.30009 | 38.24870 | 36854 ft | 555 kts | 127° |
| 2026-04-24 22:59 | 25.26224 | 38.32314 | 36866 ft | 556 kts | 127° |
| 2026-04-24 23:00 | 25.20527 | 38.43499 | 36857 ft | 557 kts | 127° |
| 2026-04-24 23:00 | 25.16719 | 38.50958 | 36883 ft | 557 kts | 127° |
| 2026-04-24 23:01 | 25.12933 | 38.58366 | 36879 ft | 558 kts | 127° |
| 2026-04-24 23:01 | 25.09108 | 38.65840 | 36845 ft | 559 kts | 127° |
| 2026-04-24 23:02 | 25.05279 | 38.73311 | 36879 ft | 560 kts | 127° |
| 2026-04-24 23:02 | 25.01446 | 38.80785 | 36887 ft | 560 kts | 127° |
| 2026-04-24 23:03 | 24.97610 | 38.88264 | 36907 ft | 559 kts | 127° |
| 2026-04-24 23:03 | 24.93802 | 38.95640 | 36914 ft | 555 kts | 127° |
| 2026-04-24 23:04 | 24.89950 | 39.03051 | 36910 ft | 553 kts | 127° |
| 2026-04-24 23:04 | 24.86158 | 39.10340 | 36925 ft | 551 kts | 127° |
| 2026-04-24 23:05 | 24.82352 | 39.17656 | 36937 ft | 548 kts | 127° |
| 2026-04-24 23:05 | 24.78555 | 39.24942 | 36938 ft | 548 kts | 127° |
| 2026-04-24 23:06 | 24.74763 | 39.32209 | 36952 ft | 547 kts | 127° |
| 2026-04-24 23:06 | 24.70972 | 39.39468 | 36946 ft | 547 kts | 127° |
| 2026-04-24 23:07 | 24.67185 | 39.46707 | 36959 ft | 546 kts | 127° |
| 2026-04-24 23:07 | 24.63398 | 39.53932 | 36967 ft | 545 kts | 127° |
| 2026-04-24 23:08 | 24.59637 | 39.61098 | 36955 ft | 545 kts | 127° |
| 2026-04-24 23:08 | 24.56147 | 39.68511 | 36940 ft | 552 kts | 117° |
| 2026-04-24 23:09 | 24.54012 | 39.76667 | 36927 ft | 560 kts | 104° |
| 2026-04-24 23:09 | 24.53144 | 39.85180 | 36936 ft | 562 kts | 98° |
| 2026-04-24 23:10 | 24.52434 | 39.93754 | 36957 ft | 564 kts | 98° |
| 2026-04-24 23:10 | 24.51652 | 40.02358 | 36963 ft | 567 kts | 99° |
| 2026-04-24 23:11 | 24.50814 | 40.10935 | 36966 ft | 570 kts | 99° |
| 2026-04-24 23:11 | 24.49956 | 40.19606 | 36968 ft | 572 kts | 99° |
| 2026-04-24 23:12 | 24.49097 | 40.28317 | 36953 ft | 574 kts | 99° |
| 2026-04-24 23:12 | 24.48235 | 40.37048 | 36965 ft | 575 kts | 99° |
| 2026-04-24 23:13 | 24.47513 | 40.44315 | 36972 ft | 576 kts | 99° |
| 2026-04-24 23:13 | 24.46640 | 40.53045 | 36953 ft | 575 kts | 99° |
| 2026-04-24 23:14 | 24.45762 | 40.61785 | 36959 ft | 574 kts | 99° |
| 2026-04-24 23:14 | 24.44888 | 40.70484 | 36956 ft | 573 kts | 99° |
| 2026-04-24 23:15 | 24.44020 | 40.79117 | 36965 ft | 573 kts | 100° |
| 2026-04-24 23:15 | 24.43141 | 40.87802 | 36967 ft | 572 kts | 100° |
| 2026-04-24 23:16 | 24.42257 | 40.96480 | 36960 ft | 571 kts | 99° |
| 2026-04-24 23:16 | 24.41371 | 41.05143 | 36965 ft | 571 kts | 100° |
| 2026-04-24 23:17 | 24.40472 | 41.13789 | 36961 ft | 570 kts | 100° |
| 2026-04-24 23:17 | 24.39559 | 41.22427 | 36967 ft | 570 kts | 100° |
| 2026-04-24 23:18 | 24.38641 | 41.31060 | 36981 ft | 570 kts | 100° |
| 2026-04-24 23:18 | 24.37721 | 41.39692 | 36989 ft | 569 kts | 100° |
| 2026-04-24 23:19 | 24.36799 | 41.48307 | 36990 ft | 568 kts | 100° |
| 2026-04-24 23:19 | 24.35878 | 41.56862 | 36980 ft | 568 kts | 100° |
| 2026-04-24 23:20 | 24.34950 | 41.65443 | 36994 ft | 566 kts | 100° |
| 2026-04-24 23:20 | 24.34016 | 41.74022 | 37002 ft | 566 kts | 100° |
| 2026-04-24 23:21 | 24.32984 | 41.82565 | 37028 ft | 563 kts | 104° |
| 2026-04-24 23:21 | 24.31018 | 41.90821 | 37020 ft | 558 kts | 111° |
| 2026-04-24 23:22 | 24.28799 | 41.98910 | 36993 ft | 558 kts | 111° |
| 2026-04-24 23:22 | 24.26594 | 42.07077 | 37013 ft | 558 kts | 111° |
| 2026-04-24 23:23 | 24.24432 | 42.15241 | 37021 ft | 559 kts | 111° |
| 2026-04-24 23:23 | 24.22269 | 42.23436 | 37016 ft | 559 kts | 111° |
| 2026-04-24 23:24 | 24.20100 | 42.31619 | 37034 ft | 559 kts | 111° |
| 2026-04-24 23:24 | 24.17937 | 42.39747 | 37042 ft | 559 kts | 111° |
| 2026-04-24 23:25 | 24.15758 | 42.47908 | 37031 ft | 558 kts | 111° |
| 2026-04-24 23:25 | 24.13578 | 42.56061 | 37039 ft | 557 kts | 111° |
| 2026-04-24 23:26 | 24.11397 | 42.64196 | 37027 ft | 556 kts | 111° |
| 2026-04-24 23:26 | 24.09215 | 42.72320 | 37048 ft | 556 kts | 111° |
| 2026-04-24 23:27 | 24.07030 | 42.80435 | 37054 ft | 556 kts | 111° |
| 2026-04-24 23:27 | 24.04841 | 42.88546 | 37061 ft | 556 kts | 111° |
| 2026-04-24 23:28 | 24.02647 | 42.96665 | 37060 ft | 556 kts | 111° |
| 2026-04-24 23:28 | 24.00452 | 43.04773 | 37054 ft | 556 kts | 111° |
| 2026-04-24 23:29 | 23.98257 | 43.12873 | 37063 ft | 555 kts | 111° |
| 2026-04-24 23:29 | 23.96060 | 43.20955 | 37076 ft | 554 kts | 111° |
| 2026-04-24 23:30 | 23.93877 | 43.28971 | 37092 ft | 553 kts | 111° |
| 2026-04-24 23:30 | 23.91683 | 43.37010 | 37076 ft | 552 kts | 111° |
| 2026-04-24 23:31 | 23.89485 | 43.45040 | 37078 ft | 551 kts | 111° |
| 2026-04-24 23:31 | 23.87288 | 43.53055 | 37076 ft | 550 kts | 111° |
| 2026-04-24 23:32 | 23.85091 | 43.61049 | 37065 ft | 549 kts | 111° |
| 2026-04-24 23:32 | 23.82891 | 43.69036 | 37075 ft | 548 kts | 111° |
| 2026-04-24 23:33 | 23.80692 | 43.77005 | 37064 ft | 548 kts | 111° |
| 2026-04-24 23:33 | 23.78492 | 43.84971 | 37055 ft | 548 kts | 110° |
| 2026-04-24 23:34 | 23.76961 | 43.93096 | 37059 ft | 553 kts | 98° |
| 2026-04-24 23:34 | 23.76370 | 44.01529 | 37057 ft | 554 kts | 96° |
| 2026-04-24 23:35 | 23.75826 | 44.09866 | 37049 ft | 554 kts | 96° |
| 2026-04-24 23:35 | 23.75222 | 44.18254 | 37067 ft | 554 kts | 97° |
| 2026-04-24 23:36 | 23.74581 | 44.26651 | 37062 ft | 554 kts | 97° |
| 2026-04-24 23:36 | 23.73935 | 44.35041 | 37060 ft | 555 kts | 97° |
| 2026-04-24 23:37 | 23.73292 | 44.43397 | 37056 ft | 555 kts | 97° |
| 2026-04-24 23:37 | 23.72319 | 44.55976 | 37071 ft | 554 kts | 97° |
| 2026-04-24 23:38 | 23.71663 | 44.64372 | 37056 ft | 554 kts | 96° |
| 2026-04-24 23:38 | 23.71003 | 44.72754 | 37062 ft | 554 kts | 96° |
| 2026-04-24 23:39 | 23.70339 | 44.81135 | 37072 ft | 555 kts | 96° |
| 2026-04-24 23:39 | 23.69670 | 44.89527 | 37064 ft | 555 kts | 96° |
| 2026-04-24 23:40 | 23.68997 | 44.97871 | 37076 ft | 555 kts | 97° |
| 2026-04-24 23:40 | 23.68314 | 45.06273 | 37044 ft | 556 kts | 96° |
| 2026-04-24 23:41 | 23.67628 | 45.14673 | 37056 ft | 556 kts | 96° |
| 2026-04-24 23:41 | 23.66936 | 45.23093 | 37064 ft | 557 kts | 96° |
| 2026-04-24 23:42 | 23.66242 | 45.31507 | 37058 ft | 557 kts | 96° |
| 2026-04-24 23:42 | 23.65544 | 45.39935 | 37056 ft | 557 kts | 96° |
| 2026-04-24 23:43 | 23.64841 | 45.48357 | 37053 ft | 557 kts | 97° |
| 2026-04-24 23:43 | 23.64139 | 45.56716 | 37019 ft | 557 kts | 96° |
| 2026-04-24 23:44 | 23.63427 | 45.65143 | 37030 ft | 557 kts | 96° |
| 2026-04-24 23:44 | 23.62711 | 45.73570 | 37034 ft | 558 kts | 96° |
| 2026-04-24 23:45 | 23.61990 | 45.82012 | 37020 ft | 560 kts | 96° |
| 2026-04-24 23:45 | 23.61263 | 45.90470 | 37024 ft | 561 kts | 96° |
| 2026-04-24 23:46 | 23.60530 | 45.98951 | 37022 ft | 562 kts | 96° |
| 2026-04-24 23:46 | 23.59795 | 46.07391 | 37018 ft | 563 kts | 96° |
| 2026-04-24 23:47 | 23.59050 | 46.15899 | 37020 ft | 563 kts | 96° |
| 2026-04-24 23:47 | 23.58300 | 46.24388 | 37030 ft | 562 kts | 96° |
| 2026-04-24 23:48 | 23.57548 | 46.32876 | 37025 ft | 562 kts | 96° |
| 2026-04-24 23:48 | 23.56796 | 46.41340 | 37034 ft | 560 kts | 97° |
| 2026-04-24 23:49 | 23.56036 | 46.49777 | 37036 ft | 558 kts | 97° |
| 2026-04-24 23:49 | 23.55278 | 46.58138 | 37019 ft | 557 kts | 97° |
| 2026-04-24 23:50 | 23.54499 | 46.66580 | 37013 ft | 555 kts | 97° |
| 2026-04-24 23:50 | 23.53728 | 46.74883 | 37013 ft | 554 kts | 97° |
| 2026-04-24 23:51 | 23.52948 | 46.83232 | 37002 ft | 554 kts | 97° |
| 2026-04-24 23:51 | 23.52165 | 46.91589 | 37001 ft | 554 kts | 97° |
| 2026-04-24 23:52 | 23.51378 | 46.99951 | 37023 ft | 555 kts | 97° |
| 2026-04-24 23:52 | 23.50584 | 47.08326 | 36990 ft | 555 kts | 97° |
| 2026-04-24 23:53 | 23.49793 | 47.16625 | 36975 ft | 554 kts | 97° |
| 2026-04-24 23:53 | 23.48992 | 47.24973 | 36987 ft | 554 kts | 97° |
| 2026-04-24 23:54 | 23.48189 | 47.33310 | 36979 ft | 553 kts | 97° |
| 2026-04-24 23:54 | 23.47381 | 47.41643 | 36975 ft | 553 kts | 97° |
| 2026-04-24 23:55 | 23.46570 | 47.49960 | 36970 ft | 552 kts | 97° |
| 2026-04-24 23:55 | 23.45759 | 47.58273 | 36980 ft | 552 kts | 97° |
| 2026-04-24 23:56 | 23.44950 | 47.66573 | 36977 ft | 551 kts | 97° |
| 2026-04-24 23:56 | 23.44138 | 47.74866 | 36953 ft | 550 kts | 97° |
| 2026-04-24 23:57 | 23.43328 | 47.83088 | 36950 ft | 549 kts | 97° |
| 2026-04-24 23:57 | 23.42508 | 47.91357 | 36948 ft | 548 kts | 97° |
| 2026-04-24 23:58 | 23.41685 | 47.99608 | 36943 ft | 548 kts | 97° |
| 2026-04-24 23:58 | 23.40859 | 48.07855 | 36937 ft | 548 kts | 97° |
| 2026-04-24 23:59 | 23.40029 | 48.16096 | 36929 ft | 547 kts | 98° |
| 2026-04-24 23:59 | 23.39195 | 48.24326 | 36906 ft | 547 kts | 97° |
| 2026-04-25 00:00 | 23.38364 | 48.32497 | 36916 ft | 547 kts | 97° |
| 2026-04-25 00:00 | 23.37853 | 48.40760 | 36928 ft | 547 kts | 93° |
| 2026-04-25 00:01 | 23.37568 | 48.49044 | 36925 ft | 548 kts | 93° |
| 2026-04-25 00:01 | 23.37274 | 48.57333 | 36916 ft | 548 kts | 93° |
| 2026-04-25 00:02 | 23.36941 | 48.65626 | 36920 ft | 548 kts | 93° |
| 2026-04-25 00:02 | 23.36593 | 48.73914 | 36916 ft | 548 kts | 93° |
| 2026-04-25 00:03 | 23.36302 | 48.80799 | 36915 ft | 548 kts | 93° |
| 2026-04-25 00:03 | 23.35951 | 48.89080 | 36893 ft | 547 kts | 93° |
| 2026-04-25 00:04 | 23.35597 | 48.97355 | 36910 ft | 547 kts | 93° |
| 2026-04-25 00:04 | 23.35139 | 49.06963 | 36911 ft | 546 kts | 96° |
| 2026-04-25 00:05 | 23.34267 | 49.13815 | 36913 ft | 545 kts | 101° |
| 2026-04-25 00:05 | 23.33037 | 49.21957 | 36910 ft | 545 kts | 101° |
| 2026-04-25 00:06 | 23.31811 | 49.30111 | 36909 ft | 546 kts | 101° |
| 2026-04-25 00:06 | 23.30625 | 49.38220 | 36908 ft | 547 kts | 100° |
| 2026-04-25 00:07 | 23.29440 | 49.46419 | 36880 ft | 547 kts | 100° |
| 2026-04-25 00:07 | 23.28253 | 49.54596 | 36900 ft | 547 kts | 100° |
| 2026-04-25 00:08 | 23.27059 | 49.62772 | 36901 ft | 547 kts | 100° |
| 2026-04-25 00:08 | 23.25867 | 49.70891 | 36901 ft | 547 kts | 100° |
| 2026-04-25 00:09 | 23.24663 | 49.79059 | 36905 ft | 547 kts | 100° |
| 2026-04-25 00:09 | 23.23455 | 49.87226 | 36896 ft | 547 kts | 100° |
| 2026-04-25 00:10 | 23.22243 | 49.95392 | 36898 ft | 546 kts | 100° |
| 2026-04-25 00:10 | 23.21030 | 50.03541 | 36888 ft | 545 kts | 100° |
| 2026-04-25 00:11 | 23.19814 | 50.11675 | 36897 ft | 545 kts | 100° |
| 2026-04-25 00:11 | 23.18603 | 50.19744 | 36901 ft | 544 kts | 100° |
| 2026-04-25 00:12 | 23.17381 | 50.27861 | 36896 ft | 544 kts | 100° |
| 2026-04-25 00:12 | 23.16156 | 50.35967 | 36896 ft | 543 kts | 100° |
| 2026-04-25 00:13 | 23.14928 | 50.44067 | 36897 ft | 543 kts | 100° |
| 2026-04-25 00:13 | 23.13697 | 50.52155 | 36892 ft | 542 kts | 100° |
| 2026-04-25 00:14 | 23.12462 | 50.60237 | 36890 ft | 542 kts | 100° |
| 2026-04-25 00:14 | 23.11232 | 50.68267 | 36898 ft | 541 kts | 100° |
| 2026-04-25 00:15 | 23.09990 | 50.76338 | 36900 ft | 541 kts | 100° |
| 2026-04-25 00:15 | 23.08746 | 50.84402 | 36891 ft | 541 kts | 100° |
| 2026-04-25 00:16 | 23.07497 | 50.92462 | 36901 ft | 541 kts | 100° |
| 2026-04-25 00:16 | 23.06245 | 51.00519 | 36897 ft | 541 kts | 100° |
| 2026-04-25 00:17 | 23.04998 | 51.08518 | 36892 ft | 541 kts | 100° |
| 2026-04-25 00:17 | 23.03739 | 51.16561 | 36895 ft | 540 kts | 100° |
| 2026-04-25 00:18 | 23.02476 | 51.24607 | 36889 ft | 540 kts | 100° |
| 2026-04-25 00:18 | 23.01210 | 51.32646 | 36899 ft | 540 kts | 100° |
| 2026-04-25 00:19 | 22.99938 | 51.40690 | 36892 ft | 540 kts | 100° |
| 2026-04-25 00:19 | 22.98663 | 51.48732 | 36888 ft | 540 kts | 100° |
| 2026-04-25 00:20 | 22.97385 | 51.56762 | 36885 ft | 540 kts | 100° |
| 2026-04-25 00:20 | 22.96111 | 51.64739 | 36892 ft | 540 kts | 100° |
| 2026-04-25 00:21 | 22.94825 | 51.72767 | 36897 ft | 539 kts | 100° |
| 2026-04-25 00:21 | 22.93535 | 51.80788 | 36878 ft | 539 kts | 100° |
| 2026-04-25 00:22 | 22.92241 | 51.88813 | 36880 ft | 539 kts | 100° |
| 2026-04-25 00:22 | 22.90947 | 51.96812 | 36896 ft | 538 kts | 100° |
| 2026-04-25 00:23 | 22.89656 | 52.04763 | 36895 ft | 538 kts | 100° |
| 2026-04-25 00:23 | 22.88353 | 52.12765 | 36877 ft | 538 kts | 100° |
| 2026-04-25 00:24 | 22.87048 | 52.20750 | 36880 ft | 538 kts | 100° |
| 2026-04-25 00:24 | 22.85739 | 52.28739 | 36879 ft | 538 kts | 100° |
| 2026-04-25 00:25 | 22.84435 | 52.36668 | 36881 ft | 537 kts | 100° |
| 2026-04-25 00:25 | 22.83121 | 52.44640 | 36882 ft | 537 kts | 100° |
| 2026-04-25 00:26 | 22.82191 | 52.52669 | 36864 ft | 536 kts | 91° |
| 2026-04-25 00:26 | 22.82020 | 52.60742 | 36879 ft | 536 kts | 90° |
| 2026-04-25 00:27 | 22.81882 | 52.68830 | 36876 ft | 536 kts | 90° |
| 2026-04-25 00:27 | 22.81698 | 52.76904 | 36879 ft | 535 kts | 90° |
| 2026-04-25 00:28 | 22.81482 | 52.84973 | 36878 ft | 535 kts | 91° |
| 2026-04-25 00:28 | 22.81259 | 52.93026 | 36880 ft | 534 kts | 91° |
| 2026-04-25 00:29 | 22.81035 | 53.01078 | 36856 ft | 534 kts | 90° |
| 2026-04-25 00:29 | 22.80812 | 53.09061 | 36878 ft | 533 kts | 90° |
| 2026-04-25 00:30 | 22.80583 | 53.17085 | 36879 ft | 533 kts | 90° |
| 2026-04-25 00:30 | 22.80351 | 53.25109 | 36881 ft | 533 kts | 90° |
| 2026-04-25 00:31 | 22.80114 | 53.33133 | 36878 ft | 532 kts | 91° |
| 2026-04-25 00:31 | 22.79873 | 53.41145 | 36875 ft | 532 kts | 91° |
| 2026-04-25 00:32 | 22.79628 | 53.49157 | 36869 ft | 531 kts | 91° |
| 2026-04-25 00:32 | 22.79380 | 53.57161 | 36875 ft | 531 kts | 91° |
| 2026-04-25 00:33 | 22.79129 | 53.65109 | 36873 ft | 531 kts | 91° |
| 2026-04-25 00:33 | 22.78873 | 53.73109 | 36874 ft | 531 kts | 91° |
| 2026-04-25 00:34 | 22.78614 | 53.81098 | 36876 ft | 531 kts | 91° |
| 2026-04-25 00:34 | 22.78350 | 53.89088 | 36867 ft | 530 kts | 91° |
| 2026-04-25 00:35 | 22.78165 | 53.97075 | 36867 ft | 529 kts | 86° |
| 2026-04-25 00:35 | 22.78987 | 54.04967 | 36875 ft | 525 kts | 75° |
| 2026-04-25 00:36 | 22.80604 | 54.12679 | 36878 ft | 524 kts | 74° |
| 2026-04-25 00:36 | 22.82231 | 54.20384 | 36868 ft | 525 kts | 75° |
| 2026-04-25 00:37 | 22.83805 | 54.28064 | 36873 ft | 525 kts | 75° |
| 2026-04-25 00:37 | 22.85362 | 54.35792 | 36868 ft | 525 kts | 75° |
| 2026-04-25 00:38 | 22.86913 | 54.43523 | 36870 ft | 524 kts | 75° |
| 2026-04-25 00:38 | 22.88463 | 54.51256 | 36868 ft | 524 kts | 75° |
| 2026-04-25 00:39 | 22.90012 | 54.58990 | 36864 ft | 524 kts | 75° |
| 2026-04-25 00:39 | 22.91553 | 54.66712 | 36861 ft | 524 kts | 75° |
| 2026-04-25 00:40 | 22.93091 | 54.74432 | 36862 ft | 524 kts | 75° |
| 2026-04-25 00:40 | 22.94626 | 54.82165 | 36858 ft | 524 kts | 75° |
| 2026-04-25 00:41 | 22.96157 | 54.89896 | 36857 ft | 524 kts | 75° |
| 2026-04-25 00:41 | 22.97677 | 54.97588 | 36863 ft | 525 kts | 75° |
| 2026-04-25 00:42 | 22.99203 | 55.05338 | 36865 ft | 525 kts | 75° |
| 2026-04-25 00:42 | 23.00727 | 55.13094 | 36867 ft | 526 kts | 75° |
| 2026-04-25 00:43 | 23.03149 | 55.20423 | 36879 ft | 510 kts | 50° |
| 2026-04-25 00:43 | 23.05495 | 55.23245 | 36878 ft | 501 kts | 35° |
| 2026-04-25 00:43 | 23.08307 | 55.25433 | 36873 ft | 496 kts | 24° |
| 2026-04-25 00:44 | 23.11431 | 55.26932 | 36859 ft | 485 kts | 10° |
| 2026-04-25 00:44 | 23.14695 | 55.27837 | 36907 ft | 485 kts | 8° |
| 2026-04-25 00:44 | 23.21289 | 55.29625 | 36890 ft | 491 kts | 9° |
| 2026-04-25 00:45 | 23.27890 | 55.31515 | 36870 ft | 492 kts | 9° |
| 2026-04-25 00:45 | 23.34443 | 55.33448 | 36861 ft | 484 kts | 9° |
| 2026-04-25 00:46 | 23.40939 | 55.35363 | 36870 ft | 484 kts | 9° |
| 2026-04-25 00:47 | 23.50670 | 55.38224 | 36887 ft | 486 kts | 9° |
| 2026-04-25 00:47 | 23.57214 | 55.40160 | 36882 ft | 488 kts | 10° |
| 2026-04-25 00:48 | 23.63783 | 55.42115 | 36887 ft | 490 kts | 10° |
| 2026-04-25 00:48 | 23.70378 | 55.44079 | 36883 ft | 491 kts | 10° |
| 2026-04-25 00:49 | 23.76982 | 55.46047 | 36886 ft | 492 kts | 10° |
| 2026-04-25 00:49 | 23.83598 | 55.48021 | 36894 ft | 492 kts | 10° |
| 2026-04-25 00:50 | 23.90172 | 55.49978 | 36710 ft | 494 kts | 10° |
| 2026-04-25 00:50 | 23.93488 | 55.50963 | 36361 ft | 489 kts | 10° |
| 2026-04-25 00:50 | 23.96749 | 55.51968 | 35740 ft | 488 kts | 13° |
| 2026-04-25 00:50 | 23.99925 | 55.53376 | 34801 ft | 499 kts | 22° |
| 2026-04-25 00:51 | 24.02959 | 55.55290 | 33772 ft | 509 kts | 30° |
| 2026-04-25 00:51 | 24.05795 | 55.57674 | 32637 ft | 519 kts | 39° |
| 2026-04-25 00:51 | 24.08474 | 55.60341 | 31559 ft | 523 kts | 40° |
| 2026-04-25 00:51 | 24.11143 | 55.63069 | 30519 ft | 526 kts | 41° |
| 2026-04-25 00:52 | 24.13822 | 55.65809 | 29655 ft | 525 kts | 41° |
| 2026-04-25 00:52 | 24.16484 | 55.68504 | 29003 ft | 514 kts | 41° |
| 2026-04-25 00:52 | 24.19067 | 55.71094 | 28047 ft | 496 kts | 40° |
| 2026-04-25 00:52 | 24.21570 | 55.73583 | 26957 ft | 488 kts | 40° |
| 2026-04-25 00:53 | 24.24068 | 55.76057 | 26401 ft | 482 kts | 40° |
| 2026-04-25 00:53 | 24.26551 | 55.78515 | 25759 ft | 479 kts | 40° |
| 2026-04-25 00:53 | 24.29021 | 55.80964 | 25131 ft | 476 kts | 40° |
| 2026-04-25 00:53 | 24.31468 | 55.83395 | 24504 ft | 473 kts | 40° |
| 2026-04-25 00:54 | 24.33900 | 55.85814 | 23864 ft | 471 kts | 40° |
| 2026-04-25 00:54 | 24.36321 | 55.88223 | 23198 ft | 469 kts | 40° |
| 2026-04-25 00:54 | 24.38727 | 55.90619 | 22519 ft | 465 kts | 40° |
| 2026-04-25 00:54 | 24.41079 | 55.92968 | 21882 ft | 461 kts | 40° |
| 2026-04-25 00:55 | 24.43437 | 55.95325 | 21250 ft | 456 kts | 41° |
| 2026-04-25 00:55 | 24.45773 | 55.97662 | 20656 ft | 452 kts | 41° |
| 2026-04-25 00:55 | 24.48082 | 55.99973 | 20061 ft | 448 kts | 41° |
| 2026-04-25 00:55 | 24.50376 | 56.02269 | 19462 ft | 444 kts | 41° |
| 2026-04-25 00:56 | 24.52646 | 56.04541 | 18851 ft | 440 kts | 41° |
| 2026-04-25 00:56 | 24.54901 | 56.06799 | 18245 ft | 437 kts | 41° |
| 2026-04-25 00:56 | 24.57145 | 56.09036 | 17578 ft | 430 kts | 40° |
| 2026-04-25 00:56 | 24.59541 | 56.10963 | 16955 ft | 425 kts | 29° |
| 2026-04-25 00:57 | 24.62196 | 56.12323 | 16366 ft | 419 kts | 19° |
| 2026-04-25 00:57 | 24.64982 | 56.13178 | 15773 ft | 414 kts | 9° |
| 2026-04-25 00:57 | 24.67821 | 56.13639 | 15194 ft | 409 kts | 7° |
| 2026-04-25 00:57 | 24.69681 | 56.13940 | 14827 ft | 404 kts | 7° |
| 2026-04-25 00:58 | 24.73298 | 56.13758 | 13975 ft | 393 kts | 340° |
| 2026-04-25 00:58 | 24.75628 | 56.12303 | 13380 ft | 378 kts | 320° |
| 2026-04-25 00:58 | 24.77429 | 56.10249 | 12291 ft | 370 kts | 308° |
| 2026-04-25 00:58 | 24.78506 | 56.08756 | 11501 ft | 369 kts | 307° |
| 2026-04-25 00:59 | 24.80571 | 56.05817 | 10437 ft | 358 kts | 306° |
| 2026-04-25 00:59 | 24.81567 | 56.04388 | 10285 ft | 338 kts | 306° |
| 2026-04-25 00:59 | 24.82946 | 56.02408 | 10079 ft | 313 kts | 306° |
| 2026-04-25 00:59 | 24.84203 | 56.00609 | 10023 ft | 288 kts | 306° |
| 2026-04-25 01:00 | 24.85415 | 55.98877 | 10031 ft | 284 kts | 306° |
| 2026-04-25 01:00 | 24.86613 | 55.97168 | 9926 ft | 281 kts | 306° |
| 2026-04-25 01:00 | 24.87802 | 55.95468 | 9672 ft | 279 kts | 306° |
| 2026-04-25 01:00 | 24.88989 | 55.93779 | 9340 ft | 278 kts | 306° |
| 2026-04-25 01:01 | 24.90165 | 55.92105 | 9068 ft | 274 kts | 306° |
| 2026-04-25 01:01 | 24.91332 | 55.90449 | 8715 ft | 274 kts | 306° |
| 2026-04-25 01:01 | 24.92500 | 55.88789 | 8393 ft | 273 kts | 306° |
| 2026-04-25 01:01 | 24.93659 | 55.87141 | 8113 ft | 271 kts | 306° |
| 2026-04-25 01:02 | 24.94810 | 55.85503 | 7808 ft | 270 kts | 306° |
| 2026-04-25 01:02 | 24.95957 | 55.83872 | 7524 ft | 268 kts | 306° |
| 2026-04-25 01:02 | 24.97096 | 55.82250 | 7231 ft | 267 kts | 306° |
| 2026-04-25 01:02 | 24.98229 | 55.80638 | 6955 ft | 266 kts | 306° |
| 2026-04-25 01:03 | 24.99360 | 55.79028 | 6663 ft | 264 kts | 306° |
| 2026-04-25 01:03 | 25.00470 | 55.77447 | 6389 ft | 264 kts | 306° |
| 2026-04-25 01:03 | 25.01591 | 55.75851 | 6080 ft | 263 kts | 306° |
| 2026-04-25 01:03 | 25.02708 | 55.74259 | 5784 ft | 262 kts | 307° |
| 2026-04-25 01:04 | 25.03814 | 55.72682 | 5629 ft | 255 kts | 307° |
| 2026-04-25 01:04 | 25.04871 | 55.71175 | 5581 ft | 242 kts | 307° |
| 2026-04-25 01:04 | 25.05872 | 55.69748 | 5555 ft | 228 kts | 307° |
| 2026-04-25 01:04 | 25.06805 | 55.68420 | 5569 ft | 209 kts | 307° |
| 2026-04-25 01:05 | 25.07667 | 55.67190 | 5581 ft | 198 kts | 306° |
| 2026-04-25 01:05 | 25.08507 | 55.65991 | 5531 ft | 199 kts | 306° |
| 2026-04-25 01:05 | 25.09367 | 55.64769 | 5282 ft | 203 kts | 307° |
| 2026-04-25 01:05 | 25.10200 | 55.63521 | 5019 ft | 201 kts | 304° |
| 2026-04-25 01:06 | 25.10966 | 55.62245 | 4726 ft | 199 kts | 302° |
| 2026-04-25 01:06 | 25.11698 | 55.60961 | 4400 ft | 196 kts | 301° |
| 2026-04-25 01:06 | 25.12412 | 55.59685 | 4090 ft | 194 kts | 301° |
| 2026-04-25 01:06 | 25.13105 | 55.58438 | 3779 ft | 192 kts | 301° |
| 2026-04-25 01:07 | 25.13794 | 55.57194 | 3539 ft | 191 kts | 301° |
| 2026-04-25 01:07 | 25.14485 | 55.55947 | 3292 ft | 189 kts | 302° |
| 2026-04-25 01:07 | 25.15157 | 55.54734 | 3040 ft | 180 kts | 302° |
| 2026-04-25 01:07 | 25.15787 | 55.53596 | 2810 ft | 168 kts | 302° |
| 2026-04-25 01:08 | 25.16392 | 55.52506 | 2629 ft | 166 kts | 302° |
| 2026-04-25 01:08 | 25.17001 | 55.51405 | 2411 ft | 169 kts | 302° |
| 2026-04-25 01:08 | 25.17613 | 55.50301 | 2196 ft | 168 kts | 302° |
| 2026-04-25 01:08 | 25.18213 | 55.49218 | 1985 ft | 167 kts | 302° |
| 2026-04-25 01:09 | 25.18800 | 55.48156 | 1789 ft | 156 kts | 302° |
| 2026-04-25 01:09 | 25.19353 | 55.47157 | 1576 ft | 150 kts | 303° |
| 2026-04-25 01:09 | 25.19897 | 55.46177 | 1393 ft | 150 kts | 302° |
| 2026-04-25 01:09 | 25.20439 | 55.45196 | 1209 ft | 149 kts | 302° |
| 2026-04-25 01:10 | 25.20979 | 55.44220 | 1007 ft | 149 kts | 302° |
| 2026-04-25 01:10 | 25.21519 | 55.43245 | 823 ft | 150 kts | 302° |
| 2026-04-25 01:10 | 25.22056 | 55.42254 | 641 ft | 151 kts | 301° |
| 2026-04-25 01:10 | 25.22605 | 55.41261 | 409 ft | 152 kts | 301° |
| 2026-04-25 01:11 | 25.23153 | 55.40269 | 216 ft | 151 kts | 302° |
| 2026-04-25 01:11 | 25.23701 | 55.39281 | 43 ft | 150 kts | 302° |
| 2026-04-25 01:11 | 25.24202 | 55.38384 | 31 ft | 118 kts | 301° |
| 2026-04-25 01:11 | 25.24550 | 55.37759 | 27 ft | 73 kts | 301° |
| 2026-04-25 01:12 | 25.24731 | 55.37419 | 27 ft | 29 kts | 294° |
| 2026-04-25 01:12 | 25.24781 | 55.37246 | 29 ft | 21 kts | 278° |
| 2026-04-25 01:12 | 25.24785 | 55.37163 | 29 ft | 8 kts | 271° |
| 2026-04-25 01:12 | 25.24786 | 55.37087 | 28 ft | 12 kts | 271° |
| 2026-04-25 01:13 | 25.24795 | 55.36991 | 27 ft | 13 kts | 283° |
| 2026-04-25 01:13 | 25.24829 | 55.36898 | 27 ft | 13 kts | 295° |
| 2026-04-25 01:13 | 25.24858 | 55.36804 | 27 ft | 13 kts | 283° |
| 2026-04-25 01:13 | 25.24880 | 55.36706 | 26 ft | 13 kts | 289° |
| 2026-04-25 01:14 | 25.24920 | 55.36617 | 29 ft | 13 kts | 301° |
| 2026-04-25 01:14 | 25.24968 | 55.36531 | 26 ft | 13 kts | 302° |
| 2026-04-25 01:14 | 25.25015 | 55.36446 | 26 ft | 13 kts | 302° |
| 2026-04-25 01:14 | 25.25063 | 55.36361 | 30 ft | 13 kts | 302° |
| 2026-04-25 01:15 | 25.25111 | 55.36277 | 26 ft | 13 kts | 302° |
| 2026-04-25 01:15 | 25.25158 | 55.36192 | 26 ft | 13 kts | 301° |
| 2026-04-25 01:15 | 25.25206 | 55.36107 | 26 ft | 13 kts | 302° |
| 2026-04-25 01:15 | 25.25253 | 55.36022 | 29 ft | 13 kts | 301° |
| 2026-04-25 01:16 | 25.25300 | 55.35936 | 28 ft | 13 kts | 301° |
| 2026-04-25 01:16 | 25.25348 | 55.35851 | 29 ft | 13 kts | 302° |
| 2026-04-25 01:16 | 25.25397 | 55.35767 | 29 ft | 13 kts | 302° |
| 2026-04-25 01:16 | 25.25445 | 55.35682 | 29 ft | 13 kts | 302° |
| 2026-04-25 01:17 | 25.25493 | 55.35597 | 29 ft | 13 kts | 302° |
| 2026-04-25 01:17 | 25.25540 | 55.35512 | 29 ft | 13 kts | 301° |
| 2026-04-25 01:17 | 25.25587 | 55.35427 | 28 ft | 13 kts | 301° |
| 2026-04-25 01:17 | 25.25634 | 55.35342 | 30 ft | 13 kts | 301° |
| 2026-04-25 01:18 | 25.25682 | 55.35257 | 27 ft | 12 kts | 302° |
| 2026-04-25 01:18 | 25.25722 | 55.35187 | 30 ft | 11 kts | 302° |
| 2026-04-25 01:18 | 25.25751 | 55.35126 | 29 ft | 7 kts | 281° |
| 2026-04-25 01:18 | 25.25728 | 55.35076 | 30 ft | 8 kts | 226° |
| 2026-04-25 01:19 | 25.25680 | 55.35041 | 31 ft | 9 kts | 211° |
| 2026-04-25 01:19 | 25.25625 | 55.35005 | 28 ft | 9 kts | 211° |
| 2026-04-25 01:19 | 25.25572 | 55.34970 | 32 ft | 6 kts | 211° |
| 2026-04-25 01:19 | 25.25547 | 55.34959 | 30 ft | 4 kts | 178° |
| 2026-04-25 01:20 | 25.25524 | 55.34975 | 28 ft | 4 kts | 136° |
| 2026-04-25 01:20 | 25.25506 | 55.35002 | 26 ft | 3 kts | 124° |
| 2026-04-25 01:20 | 25.25498 | 55.35015 | 29 ft | 1 kts | 122° |
| 2026-04-25 01:20 | 25.25497 | 55.35017 | 29 ft | 0 kts | 122° |